createdAt,value
2018-09-14T00:01:43.002Z,82.00
2018-09-14T00:04:13.085Z,81.20
2018-09-14T00:06:43.043Z,81.90
2018-09-14T00:09:13.883Z,82.70
2018-09-14T00:11:44.173Z,82.30
2018-09-14T00:14:14.188Z,82.80
2018-09-14T00:16:44.231Z,82.60
2018-09-14T00:19:14.579Z,82.80
2018-09-14T00:21:44.955Z,83.80
2018-09-14T00:24:15.151Z,83.50
2018-09-14T00:26:45.297Z,83.60
2018-09-14T00:29:15.634Z,83.70
2018-09-14T00:31:45.943Z,82.60
2018-09-14T00:34:16.605Z,83.50
2018-09-14T00:36:47.796Z,83.00
2018-09-14T00:39:18.829Z,83.70
2018-09-14T00:41:49.757Z,82.60
2018-09-14T00:44:21.431Z,82.00
2018-09-14T00:46:53.930Z,82.70
2018-09-14T00:49:26.833Z,81.90
2018-09-14T00:51:57.833Z,82.20
2018-09-14T00:54:28.574Z,81.60
2018-09-14T00:56:59.536Z,82.70
2018-09-14T00:59:30.338Z,81.60
2018-09-14T01:02:01.143Z,80.60
2018-09-14T01:04:32.314Z,80.20
2018-09-14T01:07:03.236Z,80.20
2018-09-14T01:09:33.628Z,80.40
2018-09-14T01:12:03.905Z,79.90
2018-09-14T01:14:34.096Z,80.40
2018-09-14T01:17:04.466Z,80.10
2018-09-14T01:19:34.534Z,80.10
2018-09-14T01:22:04.667Z,80.10
2018-09-14T01:24:34.959Z,81.20
2018-09-14T01:27:04.949Z,80.70
2018-09-14T01:29:35.072Z,80.70
2018-09-14T01:32:05.163Z,79.20
2018-09-14T01:34:35.221Z,78.20
2018-09-14T01:37:05.579Z,79.10
2018-09-14T01:39:35.988Z,79.20
2018-09-14T01:42:06.264Z,78.40
2018-09-14T01:44:36.339Z,79.90
2018-09-14T01:47:06.313Z,79.40
2018-09-14T01:49:36.348Z,79.40
2018-09-14T01:52:06.303Z,78.40
2018-09-14T01:54:36.379Z,77.90
2018-09-14T01:57:06.480Z,77.70
2018-09-14T01:59:36.560Z,77.50
2018-09-14T02:02:06.580Z,76.30
2018-09-14T02:04:36.551Z,76.00
2018-09-14T02:07:06.533Z,74.90
2018-09-14T02:09:36.485Z,74.90
2018-09-14T02:12:06.452Z,74.90
2018-09-14T02:14:36.415Z,74.80
2018-09-14T02:17:06.396Z,74.00
2018-09-14T02:19:36.510Z,74.20
2018-09-14T02:22:06.889Z,73.40
2018-09-14T02:24:37.011Z,72.60
2018-09-14T02:27:07.045Z,71.20
2018-09-14T02:29:36.985Z,71.20
2018-09-14T02:32:07.152Z,71.90
2018-09-14T02:34:37.176Z,71.90
2018-09-14T02:37:07.358Z,71.40
2018-09-14T02:39:38.667Z,71.70
2018-09-14T02:42:08.764Z,71.40
2018-09-14T02:44:38.775Z,72.70
2018-09-14T02:47:09.053Z,72.70
2018-09-14T02:49:39.012Z,72.90
2018-09-14T02:52:10.108Z,73.20
2018-09-14T02:54:50.836Z,73.30
2018-09-14T02:57:23.813Z,73.40
2018-09-14T02:59:56.313Z,73.00
2018-09-14T03:02:28.069Z,72.60
2018-09-14T03:05:00.129Z,72.20
2018-09-14T03:07:31.218Z,72.30
2018-09-14T03:10:02.180Z,72.20
2018-09-14T03:12:32.994Z,72.60
2018-09-14T03:15:03.659Z,74.60
2018-09-14T03:17:34.295Z,74.50
2018-09-14T03:20:04.440Z,74.50
2018-09-14T03:22:34.833Z,75.30
2018-09-14T03:25:04.795Z,75.90
2018-09-14T03:27:35.268Z,75.80
2018-09-14T03:30:05.261Z,76.40
2018-09-14T03:32:35.424Z,76.80
2018-09-14T03:35:05.452Z,77.50
2018-09-14T03:37:35.583Z,76.10
2018-09-14T03:40:05.693Z,75.90
2018-09-14T03:42:35.810Z,75.60
2018-09-14T03:45:05.863Z,75.40
2018-09-14T03:47:35.859Z,75.10
2018-09-14T03:50:05.892Z,75.90
2018-09-14T03:52:35.918Z,75.90
2018-09-14T03:55:05.945Z,75.20
2018-09-14T03:57:36.101Z,75.20
2018-09-14T04:00:06.048Z,75.60
2018-09-14T04:02:36.006Z,75.60
2018-09-14T04:05:06.060Z,75.70
2018-09-14T04:07:36.059Z,75.40
2018-09-14T04:10:06.166Z,75.90
2018-09-14T04:12:36.238Z,75.80
2018-09-14T04:15:06.279Z,75.30
2018-09-14T04:17:36.223Z,75.20
2018-09-14T04:20:06.276Z,75.00
2018-09-14T04:22:36.274Z,74.70
2018-09-14T04:25:06.233Z,74.70
2018-09-14T04:27:36.211Z,74.70
2018-09-14T04:30:06.328Z,74.70
2018-09-14T04:32:36.333Z,71.80
2018-09-14T04:35:06.494Z,73.40
2018-09-14T04:37:36.678Z,72.90
2018-09-14T04:40:06.708Z,73.00
2018-09-14T04:42:36.772Z,73.00
2018-09-14T04:45:06.743Z,71.20
2018-09-14T04:47:36.784Z,71.90
2018-09-14T04:50:06.816Z,71.90
2018-09-14T04:52:36.864Z,70.00
2018-09-14T04:55:06.832Z,70.40
2018-09-14T04:57:36.941Z,70.40
2018-09-14T05:00:06.885Z,70.60
2018-09-14T05:02:36.798Z,70.80
2018-09-14T05:05:06.888Z,70.80
2018-09-14T05:07:36.938Z,70.50
2018-09-14T05:10:07.146Z,70.20
2018-09-14T05:12:37.177Z,69.90
2018-09-14T05:15:07.284Z,70.00
2018-09-14T05:17:37.222Z,70.10
2018-09-14T05:20:07.271Z,70.70
2018-09-14T05:22:37.358Z,70.20
2018-09-14T05:25:07.594Z,69.70
2018-09-14T05:27:37.514Z,69.70
2018-09-14T05:30:07.476Z,70.30
2018-09-14T05:32:37.594Z,70.40
2018-09-14T05:35:07.612Z,69.30
2018-09-14T05:37:37.586Z,68.80
2018-09-14T05:40:07.612Z,68.50
2018-09-14T05:42:38.441Z,68.40
2018-09-14T05:45:08.609Z,68.80
2018-09-14T05:51:38.368Z,69.00
2018-09-14T05:54:14.023Z,66.10
2018-09-14T05:56:45.574Z,64.70
2018-09-14T05:59:15.773Z,64.90
2018-09-14T06:01:46.149Z,65.10
2018-09-14T06:04:16.458Z,64.60
2018-09-14T06:06:46.493Z,65.60
2018-09-14T06:09:16.699Z,64.10
2018-09-14T06:11:47.260Z,63.80
2018-09-14T06:14:17.831Z,63.50
2018-09-14T06:16:49.146Z,62.80
2018-09-14T06:19:20.140Z,62.90
2018-09-14T06:22:03.106Z,62.50
2018-09-14T06:24:51.648Z,63.30
2018-09-14T06:27:25.731Z,61.30
2018-09-14T06:29:57.879Z,61.20
2018-09-14T06:32:29.740Z,61.10
2018-09-14T06:35:00.978Z,61.30
2018-09-14T06:37:32.139Z,60.60
2018-09-14T06:40:02.512Z,59.60
2018-09-14T06:42:32.507Z,59.60
2018-09-14T06:45:03.380Z,59.30
2018-09-14T06:47:34.429Z,59.00
2018-09-14T06:50:04.440Z,59.10
2018-09-14T06:52:35.332Z,57.90
2018-09-14T06:55:05.288Z,58.00
2018-09-14T06:57:35.566Z,57.30
2018-09-14T07:00:05.830Z,57.40
2018-09-14T07:02:35.743Z,56.30
2018-09-14T07:05:06.133Z,55.00
2018-09-14T07:07:36.046Z,55.10
2018-09-14T07:10:06.067Z,55.50
2018-09-14T07:12:36.190Z,55.90
2018-09-14T07:15:06.158Z,55.80
2018-09-14T07:17:36.264Z,54.20
2018-09-14T07:20:06.512Z,53.20
2018-09-14T07:22:36.552Z,53.10
2018-09-14T07:25:06.535Z,54.00
2018-09-14T07:27:36.708Z,53.00
2018-09-14T07:30:06.748Z,53.60
2018-09-14T07:32:36.834Z,53.40
2018-09-14T07:35:06.822Z,54.10
2018-09-14T07:37:37.339Z,54.40
2018-09-14T07:40:07.371Z,53.00
2018-09-14T07:42:39.012Z,52.40
2018-09-14T07:51:30.870Z,50.30
2018-09-14T07:54:03.817Z,50.90
2018-09-14T07:56:35.792Z,49.90
2018-09-14T07:59:24.799Z,50.00
2018-09-14T08:10:36.038Z,48.60
2018-09-14T08:13:06.175Z,48.80
2018-09-14T08:15:36.156Z,48.80
2018-09-14T08:18:06.585Z,48.70
2018-09-14T08:20:37.604Z,48.10
2018-09-14T08:23:07.563Z,48.90
2018-09-14T08:25:37.612Z,48.10
2018-09-14T08:28:07.644Z,48.10
2018-09-14T08:30:39.077Z,48.70
2018-09-14T08:33:09.175Z,47.60
2018-09-14T08:35:39.249Z,47.80
2018-09-14T08:38:11.705Z,48.00
2018-09-14T08:40:41.825Z,48.20
2018-09-14T08:43:13.691Z,48.60
2018-09-14T08:45:45.488Z,48.40
2018-09-14T08:48:17.338Z,48.00
2018-09-14T08:51:36.574Z,47.70
2018-09-14T08:54:06.618Z,47.70
2018-09-14T08:56:54.491Z,47.60
2018-09-14T08:59:29.709Z,48.30
2018-09-14T09:02:00.751Z,47.70
2018-09-14T09:04:31.962Z,47.30
2018-09-14T09:07:03.189Z,47.20
2018-09-14T09:09:35.840Z,47.70
2018-09-14T09:12:05.844Z,47.70
2018-09-14T09:14:35.831Z,47.80
2018-09-14T09:17:06.328Z,47.80
2018-09-14T09:19:36.381Z,47.60
2018-09-14T09:22:06.746Z,48.90
2018-09-14T09:24:36.755Z,48.10
2018-09-14T09:27:06.761Z,49.10
2018-09-14T09:29:36.766Z,47.40
2018-09-14T09:32:06.764Z,45.70
2018-09-14T09:34:36.944Z,45.50
2018-09-14T09:37:07.898Z,45.60
2018-09-14T09:39:37.902Z,47.00
2018-09-14T09:42:07.925Z,46.20
2018-09-14T09:44:38.028Z,45.60
2018-09-14T09:47:07.992Z,45.40
2018-09-14T09:49:37.973Z,45.70
2018-09-14T09:52:07.959Z,46.40
2018-09-14T09:54:37.971Z,45.50
2018-09-14T09:57:08.043Z,45.50
2018-09-14T09:59:38.116Z,45.50
2018-09-14T10:02:19.302Z,45.70
2018-09-14T10:04:58.639Z,44.90
2018-09-14T10:07:28.575Z,44.40
2018-09-14T10:09:58.543Z,45.00
2018-09-14T10:12:28.556Z,44.20
2018-09-14T10:14:58.625Z,44.10
2018-09-14T10:17:28.587Z,43.80
2018-09-14T10:19:58.541Z,44.00
2018-09-14T10:22:28.617Z,43.20
2018-09-14T10:24:58.626Z,44.30
2018-09-14T10:29:05.245Z,44.60
2018-09-14T10:31:35.188Z,44.30
2018-09-14T10:34:05.161Z,44.80
2018-09-14T10:36:35.168Z,44.90
2018-09-14T10:39:08.594Z,45.00
2018-09-14T10:41:38.639Z,45.40
2018-09-14T10:44:08.713Z,45.40
2018-09-14T10:46:38.780Z,45.40
2018-09-14T10:49:08.830Z,45.40
2018-09-14T10:51:39.053Z,45.20
2018-09-14T10:54:09.167Z,45.40
2018-09-14T10:56:39.265Z,45.50
2018-09-14T10:59:09.372Z,45.50
2018-09-14T11:01:39.403Z,44.70
2018-09-14T11:04:09.732Z,43.80
2018-09-14T11:09:52.979Z,44.30
2018-09-14T11:12:22.876Z,43.90
2018-09-14T11:14:52.942Z,43.50
2018-09-14T11:17:22.871Z,43.70
2018-09-14T11:19:52.879Z,44.80
2018-09-14T11:22:22.964Z,43.50
2018-09-14T11:24:52.938Z,43.30
2018-09-14T11:27:22.907Z,42.90
2018-09-14T11:29:52.927Z,42.40
2018-09-14T11:32:22.931Z,42.80
2018-09-14T11:34:53.019Z,41.80
2018-09-14T11:37:23.098Z,41.90
2018-09-14T11:39:54.653Z,42.50
2018-09-14T11:42:26.074Z,42.50
2018-09-14T11:48:02.630Z,41.80
2018-09-14T11:50:32.625Z,42.10
2018-09-14T11:53:02.670Z,41.60
2018-09-14T11:55:32.780Z,41.90
2018-09-14T11:58:02.824Z,41.70
2018-09-14T12:00:32.943Z,42.00
2018-09-14T12:03:05.115Z,41.30
2018-09-14T12:05:35.101Z,41.80
2018-09-14T12:08:05.148Z,40.90
2018-09-14T12:10:36.060Z,40.70
2018-09-14T12:13:06.086Z,40.00
2018-09-14T12:15:36.103Z,41.00
2018-09-14T12:18:06.157Z,41.40
2018-09-14T12:34:00.829Z,42.80
2018-09-14T12:36:30.761Z,42.20
2018-09-14T12:39:00.752Z,40.80
2018-09-14T12:41:30.856Z,40.60
2018-09-14T12:44:00.941Z,40.00
2018-09-14T12:46:30.955Z,39.60
2018-09-14T12:49:00.930Z,39.20
2018-09-14T12:51:30.984Z,39.50
2018-09-14T12:54:01.075Z,39.20
2018-09-14T12:56:31.313Z,39.90
2018-09-14T12:59:01.440Z,38.70
2018-09-14T13:01:31.443Z,40.50
2018-09-14T13:04:01.422Z,40.40
2018-09-14T13:06:31.515Z,40.50
2018-09-14T13:09:01.550Z,40.60
2018-09-14T13:11:38.958Z,40.70
2018-09-14T13:14:09.460Z,41.10
2018-09-14T13:16:39.552Z,41.10
2018-09-14T13:19:09.677Z,42.00
2018-09-14T13:21:39.695Z,41.80
2018-09-14T13:24:09.839Z,42.30
2018-09-14T13:26:39.824Z,41.70
2018-09-14T13:29:09.858Z,41.70
2018-09-14T13:31:39.897Z,41.10
2018-09-14T13:34:10.171Z,40.90
2018-09-14T13:36:40.339Z,41.00
2018-09-14T13:39:11.217Z,40.50
2018-09-14T13:41:41.245Z,40.40
2018-09-14T13:44:11.207Z,40.30
2018-09-14T13:46:41.172Z,40.70
2018-09-14T13:49:11.311Z,40.80
2018-09-14T13:51:41.381Z,41.40
2018-09-14T13:54:11.419Z,40.90
2018-09-14T13:56:41.347Z,40.30
2018-09-14T13:59:11.335Z,40.70
2018-09-14T14:01:41.348Z,41.00
2018-09-14T14:04:11.287Z,40.90
2018-09-14T14:06:41.234Z,42.20
2018-09-14T14:09:12.744Z,41.00
2018-09-14T14:11:42.752Z,41.50
2018-09-14T14:14:12.884Z,42.60
2018-09-14T14:16:43.005Z,43.10
2018-09-14T14:19:12.926Z,42.00
2018-09-14T14:21:42.920Z,41.90
2018-09-14T14:24:12.897Z,41.70
2018-09-14T14:26:43.006Z,42.60
2018-09-14T14:29:12.964Z,42.10
2018-09-14T14:31:43.089Z,41.70
2018-09-14T14:34:13.029Z,41.50
2018-09-14T14:36:43.140Z,41.90
2018-09-14T14:39:13.152Z,41.80
2018-09-14T14:41:43.179Z,41.40
2018-09-14T14:44:13.218Z,41.40
2018-09-14T14:46:43.288Z,41.30
2018-09-14T14:49:13.341Z,41.70
2018-09-14T14:51:43.517Z,41.80
2018-09-14T14:54:13.522Z,41.20
2018-09-14T14:56:43.593Z,41.90
2018-09-14T14:59:13.668Z,41.60
2018-09-14T15:01:43.716Z,41.50
2018-09-14T15:04:13.853Z,41.50
2018-09-14T15:06:44.021Z,41.60
2018-09-14T15:09:14.072Z,41.50
2018-09-14T15:11:44.088Z,41.40
2018-09-14T15:14:14.188Z,41.80
2018-09-14T15:16:44.296Z,41.80
2018-09-14T15:19:14.297Z,41.70
2018-09-14T15:21:44.299Z,41.80
2018-09-14T15:24:26.986Z,42.90
2018-09-14T15:26:58.272Z,43.90
2018-09-14T15:29:28.313Z,43.00
2018-09-14T15:31:58.345Z,42.90
2018-09-14T15:34:30.050Z,43.00
2018-09-14T15:37:10.612Z,43.10
2018-09-14T15:42:59.195Z,43.50
2018-09-14T15:45:29.203Z,43.80
2018-09-14T15:47:59.295Z,44.40
2018-09-14T15:50:29.402Z,44.30
2018-09-14T15:53:00.006Z,45.20
2018-09-14T15:55:30.397Z,45.00
2018-09-14T15:58:00.604Z,45.80
2018-09-14T16:00:31.063Z,45.70
2018-09-14T16:03:01.384Z,45.70
2018-09-14T16:05:31.789Z,45.80
2018-09-14T16:08:01.910Z,45.80
2018-09-14T16:10:31.806Z,45.80
2018-09-14T16:13:02.177Z,45.90
2018-09-14T16:15:32.535Z,45.80
2018-09-14T16:18:02.960Z,46.20
2018-09-14T16:20:33.108Z,45.70
2018-09-14T16:23:03.038Z,45.80
2018-09-14T16:25:33.148Z,45.80
2018-09-14T16:28:03.114Z,45.80
2018-09-14T16:30:34.018Z,46.50
2018-09-14T16:33:04.281Z,45.90
2018-09-14T16:35:34.382Z,46.60
2018-09-14T16:38:04.603Z,47.20
2018-09-14T16:40:34.649Z,47.40
2018-09-14T16:43:04.826Z,48.10
2018-09-14T16:45:35.149Z,49.00
2018-09-14T16:48:09.338Z,48.70
2018-09-14T16:50:39.406Z,49.30
2018-09-14T16:53:09.431Z,49.60
2018-09-14T16:55:39.456Z,49.70
2018-09-14T16:58:09.577Z,50.30
2018-09-14T17:00:39.587Z,50.70
2018-09-14T17:03:09.989Z,51.00
2018-09-14T17:05:46.521Z,51.20
2018-09-14T17:08:17.474Z,51.30
2018-09-14T17:10:47.686Z,51.70
2018-09-14T17:13:18.319Z,52.10
2018-09-14T17:15:48.884Z,52.30
2018-09-14T17:18:19.413Z,52.70
2018-09-14T17:20:50.359Z,52.90
2018-09-14T17:23:20.981Z,53.40
2018-09-14T17:25:53.394Z,53.30
2018-09-14T17:28:24.503Z,53.20
2018-09-14T17:30:57.025Z,53.80
2018-09-14T17:33:27.736Z,54.30
2018-09-14T17:35:59.044Z,54.40
2018-09-14T17:38:29.720Z,54.40
2018-09-14T17:41:00.892Z,54.30
2018-09-14T17:43:31.805Z,54.60
2018-09-14T17:46:03.118Z,55.00
2018-09-14T17:48:33.543Z,55.40
2018-09-14T17:51:04.301Z,55.70
2018-09-14T17:53:34.725Z,56.00
2018-09-14T17:56:04.672Z,56.30
2018-09-14T17:58:35.171Z,56.70
2018-09-14T18:01:05.621Z,57.10
2018-09-14T18:03:35.915Z,57.10
2018-09-14T18:06:05.908Z,57.80
2018-09-14T18:08:36.267Z,58.30
2018-09-14T18:11:06.402Z,58.70
2018-09-14T18:13:41.094Z,58.80
2018-09-14T18:16:17.250Z,59.20
2018-09-14T18:18:47.203Z,59.30
2018-09-14T18:21:19.495Z,60.00
2018-09-14T18:23:49.507Z,60.20
2018-09-14T18:26:19.520Z,60.20
2018-09-14T18:28:49.749Z,60.40
2018-09-14T18:31:19.702Z,60.50
2018-09-14T18:33:49.800Z,61.00
2018-09-14T18:36:19.824Z,61.40
2018-09-14T18:38:49.851Z,61.70
2018-09-14T18:41:19.905Z,61.80
2018-09-14T18:43:50.507Z,62.00
2018-09-14T18:46:20.523Z,62.30
2018-09-14T18:48:50.663Z,62.80
2018-09-14T18:51:20.707Z,62.80
2018-09-14T18:53:50.839Z,63.00
2018-09-14T18:56:20.935Z,63.50
2018-09-14T18:58:50.953Z,63.80
2018-09-14T19:01:21.050Z,64.30
2018-09-14T19:03:51.131Z,64.70
2018-09-14T19:06:21.293Z,65.00
2018-09-14T19:08:51.227Z,65.70
2018-09-14T19:11:21.227Z,65.80
2018-09-14T19:13:51.346Z,66.10
2018-09-14T19:16:21.354Z,66.80
2018-09-14T19:18:51.418Z,67.00
2018-09-14T19:21:21.444Z,67.60
2018-09-14T19:23:51.551Z,67.90
2018-09-14T19:26:21.572Z,68.00
2018-09-14T19:28:51.531Z,69.00
2018-09-14T19:31:21.510Z,69.30
2018-09-14T19:33:51.578Z,68.90
2018-09-14T19:36:21.593Z,70.10
2018-09-14T19:38:51.696Z,70.10
2018-09-14T19:41:22.294Z,70.10
2018-09-14T19:43:52.337Z,70.10
2018-09-14T19:46:22.334Z,70.10
2018-09-14T19:48:52.445Z,70.10
2018-09-14T19:51:22.509Z,70.20
2018-09-14T19:53:52.534Z,70.10
2018-09-14T19:56:22.549Z,70.30
2018-09-14T19:58:52.651Z,70.80
2018-09-14T20:01:22.721Z,71.60
2018-09-14T20:03:52.873Z,70.70
2018-09-14T20:06:23.552Z,70.20
2018-09-14T20:08:53.660Z,70.80
2018-09-14T20:11:23.637Z,71.00
2018-09-14T20:13:53.683Z,70.80
2018-09-14T20:16:23.690Z,70.70
2018-09-14T20:18:53.748Z,71.10
2018-09-14T20:21:23.761Z,71.60
2018-09-14T20:23:53.743Z,72.10
2018-09-14T20:26:23.799Z,72.10
2018-09-14T20:28:53.813Z,72.30
2018-09-14T20:31:23.849Z,72.40
2018-09-14T20:33:53.987Z,73.00
2018-09-14T20:36:24.050Z,73.20
2018-09-14T20:38:54.100Z,74.20
2018-09-14T20:41:24.141Z,73.90
2018-09-14T20:43:54.088Z,73.50
2018-09-14T20:46:27.661Z,73.20
2018-09-14T20:48:59.544Z,72.80
2018-09-14T20:51:30.567Z,72.50
2018-09-14T20:54:00.890Z,71.90
2018-09-14T20:56:30.926Z,72.00
2018-09-14T20:59:01.197Z,71.60
2018-09-14T21:01:32.683Z,71.60
2018-09-14T21:04:03.170Z,71.30
2018-09-14T21:06:33.288Z,71.50
2018-09-14T21:09:04.038Z,71.30
2018-09-14T21:11:34.931Z,71.60
2018-09-14T21:14:05.570Z,71.60
2018-09-14T21:16:35.520Z,71.30
2018-09-14T21:19:05.513Z,71.00
2018-09-14T21:21:35.518Z,71.40
2018-09-14T21:24:05.459Z,70.60
2018-09-14T21:26:35.432Z,71.20
2018-09-14T21:29:05.763Z,70.90
2018-09-14T21:31:35.775Z,70.60
2018-09-14T21:34:05.687Z,71.30
2018-09-14T21:36:35.599Z,70.90
2018-09-14T21:39:09.541Z,70.40
2018-09-14T21:41:39.662Z,70.90
2018-09-14T21:44:10.327Z,70.40
2018-09-14T21:46:40.532Z,70.40
2018-09-14T21:49:10.724Z,71.00
2018-09-14T21:51:40.783Z,71.10
2018-09-14T21:54:10.930Z,70.50
2018-09-14T21:56:40.832Z,70.50
2018-09-14T21:59:10.921Z,70.40
2018-09-14T22:01:40.908Z,69.70
2018-09-14T22:04:10.946Z,69.50
2018-09-14T22:06:41.038Z,69.50
2018-09-14T22:09:11.111Z,69.60
2018-09-14T22:11:41.077Z,69.30
2018-09-14T22:14:11.279Z,69.60
2018-09-14T22:16:41.244Z,69.50
2018-09-14T22:19:11.264Z,69.40
2018-09-14T22:21:41.294Z,68.90
2018-09-14T22:24:11.329Z,68.30
2018-09-14T22:26:41.306Z,68.60
2018-09-14T22:29:11.324Z,69.20
2018-09-14T22:31:41.312Z,69.00
2018-09-14T22:34:11.264Z,69.30
2018-09-14T22:36:41.375Z,69.20
2018-09-14T22:39:12.837Z,69.00
2018-09-14T22:41:42.840Z,68.90
2018-09-14T22:44:12.818Z,69.00
2018-09-14T22:46:42.848Z,68.80
2018-09-14T22:49:12.961Z,69.50
2018-09-14T22:51:42.991Z,69.60
2018-09-14T22:54:13.124Z,69.30
2018-09-14T22:56:43.176Z,69.00
2018-09-14T22:59:13.218Z,68.90
2018-09-14T23:01:43.232Z,69.50
2018-09-14T23:04:13.258Z,68.70
2018-09-14T23:06:43.392Z,68.30
2018-09-14T23:09:13.434Z,68.90
2018-09-14T23:11:43.440Z,68.70
2018-09-14T23:14:13.556Z,68.70
2018-09-14T23:16:43.595Z,68.60
2018-09-14T23:19:13.652Z,68.10
2018-09-14T23:21:43.774Z,68.10
2018-09-14T23:24:13.784Z,67.80
2018-09-14T23:26:43.880Z,68.90
2018-09-14T23:29:13.972Z,68.50
2018-09-14T23:31:44.095Z,69.10
2018-09-14T23:34:14.137Z,69.50
2018-09-14T23:36:44.252Z,69.50
2018-09-14T23:39:14.354Z,69.40
2018-09-14T23:41:44.537Z,69.00
2018-09-14T23:44:14.527Z,68.40
2018-09-14T23:46:44.611Z,68.30
2018-09-14T23:49:14.679Z,68.00
2018-09-14T23:51:44.709Z,68.20
2018-09-14T23:54:14.718Z,68.00
2018-09-14T23:56:44.752Z,68.40
2018-09-14T23:59:14.799Z,68.30
